Time,TemperatureF,DewpointF,PressureIn,WindDirection,WindDirectionDegrees,WindSpeedMPH,WindSpeedGustMPH,Humidity,HourlyPrecipIn,Conditions,Clouds,dailyrainin,SoftwareType,DateUTC
2013-07-15 00:03:00,72.5,69.1,29.97,SE,141,1.0,2.0,89,0.00,,,0.00,Wunderground v.1.15,2013-07-15 05:03:00,
2013-07-15 00:09:00,72.4,69.3,29.97,SE,129,1.0,2.0,90,0.00,,,0.00,Wunderground v.1.15,2013-07-15 05:09:00,
2013-07-15 00:14:00,72.3,69.2,29.97,SE,132,1.0,2.0,90,0.00,,,0.00,Wunderground v.1.15,2013-07-15 05:14:00,
2013-07-15 00:19:00,72.3,69.2,29.97,ESE,111,1.0,2.0,90,0.00,,,0.00,Wunderground v.1.15,2013-07-15 05:19:00,
2013-07-15 00:24:00,72.2,69.1,29.98,ESE,112,0.0,2.0,90,0.00,,,0.00,Wunderground v.1.15,2013-07-15 05:24:00,
2013-07-15 00:29:00,72.3,69.2,29.97,ESE,105,1.0,2.0,90,0.00,,,0.00,Wunderground v.1.15,2013-07-15 05:29:00,
2013-07-15 00:35:00,72.0,69.2,29.98,ESE,105,2.0,2.0,91,0.00,,,0.00,Wunderground v.1.15,2013-07-15 05:35:00,
2013-07-15 00:40:00,72.0,69.2,29.97,ESE,116,2.0,2.0,91,0.00,,,0.00,Wunderground v.1.15,2013-07-15 05:40:00,
2013-07-15 00:45:00,71.9,69.1,29.98,ESE,113,1.0,2.0,91,0.00,,,0.00,Wunderground v.1.15,2013-07-15 05:45:00,
2013-07-15 00:50:00,72.0,69.2,29.98,East,92,2.0,4.0,91,0.00,,,0.00,Wunderground v.1.15,2013-07-15 05:50:00,
2013-07-15 00:56:00,72.0,69.2,29.98,ESE,117,2.0,2.0,91,0.00,,,0.00,Wunderground v.1.15,2013-07-15 05:56:00,
2013-07-15 01:01:00,71.9,69.1,29.98,ESE,105,1.0,2.0,91,0.00,,,0.00,Wunderground v.1.15,2013-07-15 06:01:00,
2013-07-15 01:06:00,71.9,69.1,29.98,SE,133,1.0,3.0,91,0.00,,,0.00,Wunderground v.1.15,2013-07-15 06:06:00,
2013-07-15 01:12:00,71.8,69.0,29.98,ESE,120,2.0,3.0,91,0.00,,,0.00,Wunderground v.1.15,2013-07-15 06:12:00,
2013-07-15 01:18:00,71.7,69.3,29.97,ESE,115,2.0,4.0,92,0.00,,,0.00,Wunderground v.1.15,2013-07-15 06:18:00,
2013-07-15 01:24:00,71.7,69.3,29.97,East,101,3.0,4.0,92,0.00,,,0.00,Wunderground v.1.15,2013-07-15 06:24:00,
2013-07-15 01:29:00,71.6,69.2,29.96,ESE,105,3.0,4.0,92,0.00,,,0.00,Wunderground v.1.15,2013-07-15 06:29:00,
2013-07-15 01:34:00,71.6,69.2,29.96,ESE,109,3.0,4.0,92,0.00,,,0.00,Wunderground v.1.15,2013-07-15 06:34:00,
2013-07-15 01:39:00,71.5,69.1,29.97,SE,129,2.0,3.0,92,0.00,,,0.00,Wunderground v.1.15,2013-07-15 06:39:00,
2013-07-15 01:44:00,71.5,69.1,29.97,ENE,72,2.0,4.0,92,0.00,,,0.00,Wunderground v.1.15,2013-07-15 06:44:00,
2013-07-15 01:50:00,71.4,69.0,29.97,East,92,2.0,4.0,92,0.00,,,0.00,Wunderground v.1.15,2013-07-15 06:50:00,
2013-07-15 01:55:00,71.4,69.0,29.97,ESE,112,2.0,2.0,92,0.00,,,0.00,Wunderground v.1.15,2013-07-15 06:55:00,
2013-07-15 02:00:00,71.4,69.0,29.97,ESE,105,2.0,2.0,92,0.00,,,0.00,Wunderground v.1.15,2013-07-15 07:00:00,
2013-07-15 02:05:00,71.3,68.9,29.97,ESE,103,1.0,2.0,92,0.00,,,0.00,Wunderground v.1.15,2013-07-15 07:05:00,
2013-07-15 02:10:00,71.3,68.9,29.97,ESE,109,1.0,2.0,92,0.00,,,0.00,Wunderground v.1.15,2013-07-15 07:10:00,
2013-07-15 02:16:00,71.2,68.8,29.97,ESE,115,1.0,2.0,92,0.00,,,0.00,Wunderground v.1.15,2013-07-15 07:16:00,
2013-07-15 02:21:00,71.2,68.8,29.97,ESE,110,1.0,2.0,92,0.00,,,0.00,Wunderground v.1.15,2013-07-15 07:21:00,
2013-07-15 02:26:00,71.2,68.8,29.97,ESE,115,1.0,2.0,92,0.00,,,0.00,Wunderground v.1.15,2013-07-15 07:26:00,
2013-07-15 02:32:00,71.1,68.7,29.97,ESE,115,1.0,2.0,92,0.00,,,0.00,Wunderground v.1.15,2013-07-15 07:32:00,
2013-07-15 02:37:00,71.2,68.8,29.97,ESE,105,1.0,2.0,92,0.00,,,0.00,Wunderground v.1.15,2013-07-15 07:37:00,
2013-07-15 02:42:00,71.2,68.8,29.97,ENE,77,1.0,2.0,92,0.00,,,0.00,Wunderground v.1.15,2013-07-15 07:42:00,
2013-07-15 02:47:00,71.2,68.8,29.97,East,96,1.0,2.0,92,0.00,,,0.00,Wunderground v.1.15,2013-07-15 07:47:00,
2013-07-15 02:53:00,71.1,68.7,29.98,ENE,75,0.0,2.0,92,0.00,,,0.00,Wunderground v.1.15,2013-07-15 07:53:00,
2013-07-15 02:59:00,71.1,68.7,29.98,ENE,75,0.0,2.0,92,0.00,,,0.00,Wunderground v.1.15,2013-07-15 07:59:00,
2013-07-15 03:04:00,71.0,68.6,29.98,East,82,0.0,2.0,92,0.00,,,0.00,Wunderground v.1.15,2013-07-15 08:04:00,
2013-07-15 03:10:00,71.0,68.6,29.97,ESE,107,1.0,2.0,92,0.00,,,0.00,Wunderground v.1.15,2013-07-15 08:10:00,
2013-07-15 03:15:00,71.1,68.7,29.97,ESE,108,1.0,2.0,92,0.00,,,0.00,Wunderground v.1.15,2013-07-15 08:15:00,
2013-07-15 03:20:00,71.0,68.6,29.97,ESE,110,1.0,2.0,92,0.00,,,0.00,Wunderground v.1.15,2013-07-15 08:20:00,
2013-07-15 03:25:00,70.9,68.5,29.98,ESE,110,1.0,1.0,92,0.00,,,0.00,Wunderground v.1.15,2013-07-15 08:25:00,
2013-07-15 03:31:00,70.9,68.5,29.97,ESE,111,1.0,2.0,92,0.00,,,0.00,Wunderground v.1.15,2013-07-15 08:31:00,
2013-07-15 03:36:00,70.9,68.5,29.97,ESE,110,1.0,2.0,92,0.00,,,0.00,Wunderground v.1.15,2013-07-15 08:36:00,
2013-07-15 03:41:00,70.8,68.4,29.97,ESE,110,1.0,2.0,92,0.00,,,0.00,Wunderground v.1.15,2013-07-15 08:41:00,
2013-07-15 03:46:00,70.8,68.7,29.97,ESE,109,0.0,2.0,93,0.00,,,0.00,Wunderground v.1.15,2013-07-15 08:46:00,
2013-07-15 03:51:00,70.8,68.7,29.98,ESE,109,0.0,2.0,93,0.00,,,0.00,Wunderground v.1.15,2013-07-15 08:51:00,
2013-07-15 03:57:00,70.8,68.7,29.98,ESE,109,0.0,2.0,93,0.00,,,0.00,Wunderground v.1.15,2013-07-15 08:57:00,
2013-07-15 04:02:00,70.8,68.7,29.98,ENE,71,0.0,2.0,93,0.00,,,0.00,Wunderground v.1.15,2013-07-15 09:02:00,
2013-07-15 04:07:00,70.7,68.6,29.98,ENE,71,0.0,2.0,93,0.00,,,0.00,Wunderground v.1.15,2013-07-15 09:07:00,
2013-07-15 04:14:00,70.5,68.4,29.98,ENE,70,0.0,2.0,93,0.00,,,0.00,Wunderground v.1.15,2013-07-15 09:14:00,
2013-07-15 04:19:00,70.5,68.4,29.99,ENE,71,0.0,2.0,93,0.00,,,0.00,Wunderground v.1.15,2013-07-15 09:19:00,
2013-07-15 04:25:00,70.4,68.3,29.99,ENE,77,0.0,2.0,93,0.00,,,0.00,Wunderground v.1.15,2013-07-15 09:25:00,
2013-07-15 04:30:00,70.4,68.3,29.99,ENE,78,0.0,2.0,93,0.00,,,0.00,Wunderground v.1.15,2013-07-15 09:30:00,
2013-07-15 04:35:00,70.4,68.6,29.99,East,79,0.0,2.0,94,0.00,,,0.00,Wunderground v.1.15,2013-07-15 09:35:00,
2013-07-15 04:40:00,70.5,68.7,29.99,ENE,75,1.0,2.0,94,0.00,,,0.00,Wunderground v.1.15,2013-07-15 09:40:00,
2013-07-15 04:45:00,70.6,68.8,29.99,East,84,1.0,3.0,94,0.00,,,0.00,Wunderground v.1.15,2013-07-15 09:45:00,
2013-07-15 04:51:00,70.6,68.8,29.99,East,83,2.0,3.0,94,0.00,,,0.00,Wunderground v.1.15,2013-07-15 09:51:00,
2013-07-15 04:56:00,70.6,68.8,29.99,ESE,110,1.0,2.0,94,0.00,,,0.00,Wunderground v.1.15,2013-07-15 09:56:00,
2013-07-15 05:01:00,70.6,68.8,30.00,ESE,105,1.0,2.0,94,0.00,,,0.00,Wunderground v.1.15,2013-07-15 10:01:00,
2013-07-15 05:06:00,70.6,68.8,30.00,ESE,104,1.0,2.0,94,0.00,,,0.00,Wunderground v.1.15,2013-07-15 10:06:00,
2013-07-15 05:12:00,70.5,68.7,30.00,ESE,105,0.0,2.0,94,0.00,,,0.00,Wunderground v.1.15,2013-07-15 10:12:00,
2013-07-15 05:17:00,70.4,68.6,30.00,ESE,104,0.0,2.0,94,0.00,,,0.00,Wunderground v.1.15,2013-07-15 10:17:00,
2013-07-15 05:22:00,70.3,68.5,30.00,ESE,105,0.0,2.0,94,0.00,,,0.00,Wunderground v.1.15,2013-07-15 10:22:00,
2013-07-15 05:28:00,70.2,68.4,30.00,ESE,105,0.0,2.0,94,0.00,,,0.00,Wunderground v.1.15,2013-07-15 10:28:00,
2013-07-15 05:33:00,70.1,68.3,30.00,ESE,104,0.0,2.0,94,0.00,,,0.00,Wunderground v.1.15,2013-07-15 10:33:00,
2013-07-15 05:39:00,70.1,68.3,30.00,ESE,105,0.0,2.0,94,0.00,,,0.00,Wunderground v.1.15,2013-07-15 10:39:00,
2013-07-15 05:44:00,70.1,68.3,30.01,East,88,0.0,2.0,94,0.00,,,0.00,Wunderground v.1.15,2013-07-15 10:44:00,
2013-07-15 05:49:00,70.0,68.2,30.01,East,88,0.0,2.0,94,0.00,,,0.00,Wunderground v.1.15,2013-07-15 10:49:00,
2013-07-15 05:54:00,70.0,68.2,30.01,East,88,0.0,2.0,94,0.00,,,0.00,Wunderground v.1.15,2013-07-15 10:54:00,
2013-07-15 05:59:00,69.9,68.1,30.01,East,88,0.0,2.0,94,0.00,,,0.00,Wunderground v.1.15,2013-07-15 10:59:00,
2013-07-15 06:04:00,69.9,68.1,30.01,East,87,0.0,2.0,94,0.00,,,0.00,Wunderground v.1.15,2013-07-15 11:04:00,
2013-07-15 06:10:00,69.9,68.1,30.02,East,88,0.0,2.0,94,0.00,,,0.00,Wunderground v.1.15,2013-07-15 11:10:00,
2013-07-15 06:15:00,69.9,68.4,30.02,East,88,0.0,2.0,95,0.00,,,0.00,Wunderground v.1.15,2013-07-15 11:15:00,
2013-07-15 06:20:00,70.0,68.5,30.02,East,81,0.0,2.0,95,0.00,,,0.00,Wunderground v.1.15,2013-07-15 11:20:00,
2013-07-15 06:25:00,70.1,68.6,30.02,ENE,63,0.0,2.0,95,0.00,,,0.00,Wunderground v.1.15,2013-07-15 11:25:00,
2013-07-15 06:31:00,70.1,68.6,30.02,ENE,63,0.0,2.0,95,0.00,,,0.00,Wunderground v.1.15,2013-07-15 11:31:00,
2013-07-15 06:36:00,70.4,68.9,30.02,ESE,105,1.0,2.0,95,0.00,,,0.00,Wunderground v.1.15,2013-07-15 11:36:00,
2013-07-15 06:41:00,70.8,69.3,30.02,ENE,74,2.0,4.0,95,0.00,,,0.00,Wunderground v.1.15,2013-07-15 11:41:00,
2013-07-15 06:47:00,71.1,69.6,30.02,ENE,70,3.0,4.0,95,0.00,,,0.00,Wunderground v.1.15,2013-07-15 11:47:00,
2013-07-15 06:52:00,71.2,69.4,30.02,East,81,3.0,5.0,94,0.00,,,0.00,Wunderground v.1.15,2013-07-15 11:52:00,
2013-07-15 06:57:00,71.2,69.4,30.03,ENE,67,3.0,4.0,94,0.00,,,0.00,Wunderground v.1.15,2013-07-15 11:57:00,
2013-07-15 07:02:00,71.3,69.5,30.03,ENE,75,3.0,4.0,94,0.00,,,0.00,Wunderground v.1.15,2013-07-15 12:02:00,
2013-07-15 07:08:00,71.6,69.8,30.03,ENE,72,2.0,4.0,94,0.00,,,0.00,Wunderground v.1.15,2013-07-15 12:08:00,
2013-07-15 07:13:00,71.9,70.1,30.03,ENE,68,2.0,5.0,94,0.00,,,0.00,Wunderground v.1.15,2013-07-15 12:13:00,
2013-07-15 07:19:00,72.3,70.5,30.03,ENE,71,3.0,3.0,94,0.00,,,0.00,Wunderground v.1.15,2013-07-15 12:19:00,
2013-07-15 07:24:00,72.5,70.4,30.03,ENE,58,3.0,4.0,93,0.00,,,0.00,Wunderground v.1.15,2013-07-15 12:24:00,
2013-07-15 07:29:00,72.9,71.1,30.04,SE,131,2.0,4.0,94,0.00,,,0.00,Wunderground v.1.15,2013-07-15 12:29:00,
2013-07-15 07:34:00,73.5,71.4,30.04,ENE,75,2.0,4.0,93,0.00,,,0.00,Wunderground v.1.15,2013-07-15 12:34:00,
2013-07-15 07:39:00,74.0,71.5,30.05,East,84,2.0,4.0,92,0.00,,,0.00,Wunderground v.1.15,2013-07-15 12:39:00,
2013-07-15 07:45:00,74.6,72.1,30.05,East,81,2.0,2.0,92,0.00,,,0.00,Wunderground v.1.15,2013-07-15 12:45:00,
2013-07-15 07:50:00,74.9,72.1,30.05,ENE,77,2.0,4.0,91,0.00,,,0.00,Wunderground v.1.15,2013-07-15 12:50:00,
2013-07-15 07:55:00,75.2,72.4,30.05,East,90,3.0,3.0,91,0.00,,,0.00,Wunderground v.1.15,2013-07-15 12:55:00,
2013-07-15 08:01:00,75.6,72.5,30.05,SE,130,3.0,4.0,90,0.00,,,0.00,Wunderground v.1.15,2013-07-15 13:01:00,
2013-07-15 08:06:00,76.1,73.0,30.05,NE,53,3.0,4.0,90,0.00,,,0.00,Wunderground v.1.15,2013-07-15 13:06:00,
2013-07-15 08:11:00,76.3,72.8,30.05,SE,142,3.0,7.0,89,0.00,,,0.00,Wunderground v.1.15,2013-07-15 13:11:00,
2013-07-15 08:16:00,76.2,73.1,30.05,East,92,4.0,6.0,90,0.00,,,0.00,Wunderground v.1.15,2013-07-15 13:16:00,
2013-07-15 08:22:00,76.3,73.1,30.06,ENE,67,5.0,6.0,90,0.00,,,0.00,Wunderground v.1.15,2013-07-15 13:22:00,
2013-07-15 08:27:00,76.6,73.4,30.05,SE,140,3.0,4.0,90,0.00,,,0.00,Wunderground v.1.15,2013-07-15 13:27:00,
2013-07-15 08:32:00,77.2,73.4,30.06,SE,132,3.0,5.0,88,0.00,,,0.00,Wunderground v.1.15,2013-07-15 13:32:00,
2013-07-15 08:37:00,77.5,74.0,30.06,SE,130,3.0,3.0,89,0.00,,,0.00,Wunderground v.1.15,2013-07-15 13:37:00,
2013-07-15 08:43:00,77.9,74.1,30.06,SE,138,3.0,5.0,88,0.00,,,0.00,Wunderground v.1.15,2013-07-15 13:43:00,
2013-07-15 08:49:00,78.2,74.4,30.06,ENE,58,4.0,5.0,88,0.00,,,0.00,Wunderground v.1.15,2013-07-15 13:49:00,
2013-07-15 08:54:00,78.5,74.0,30.06,East,101,4.0,8.0,86,0.00,,,0.00,Wunderground v.1.15,2013-07-15 13:54:00,
2013-07-15 09:00:00,78.7,74.5,30.06,SE,134,4.0,5.0,87,0.00,,,0.00,Wunderground v.1.15,2013-07-15 14:00:00,
2013-07-15 09:05:00,79.0,74.5,30.07,SE,135,4.0,4.0,86,0.00,,,0.00,Wunderground v.1.15,2013-07-15 14:05:00,
2013-07-15 09:10:00,79.4,74.5,30.07,ESE,111,4.0,5.0,85,0.00,,,0.00,Wunderground v.1.15,2013-07-15 14:10:00,
2013-07-15 09:15:00,79.5,74.6,30.07,SE,144,3.0,3.0,85,0.00,,,0.00,Wunderground v.1.15,2013-07-15 14:15:00,
2013-07-15 09:21:00,79.7,74.8,30.07,ESE,103,3.0,4.0,85,0.00,,,0.00,Wunderground v.1.15,2013-07-15 14:21:00,
2013-07-15 09:26:00,80.1,74.8,30.06,SE,135,3.0,3.0,84,0.00,,,0.00,Wunderground v.1.15,2013-07-15 14:26:00,
2013-07-15 09:31:00,80.7,75.8,30.06,ESE,113,3.0,5.0,85,0.00,,,0.00,Wunderground v.1.15,2013-07-15 14:31:00,
2013-07-15 09:36:00,81.3,75.6,30.06,ESE,105,3.0,3.0,83,0.00,,,0.00,Wunderground v.1.15,2013-07-15 14:36:00,
2013-07-15 09:41:00,81.6,75.6,30.06,SE,134,4.0,5.0,82,0.00,,,0.00,Wunderground v.1.15,2013-07-15 14:41:00,
2013-07-15 09:47:00,82.0,76.0,30.06,ENE,70,4.0,4.0,82,0.00,,,0.00,Wunderground v.1.15,2013-07-15 14:47:00,
2013-07-15 09:52:00,82.8,76.4,30.06,SE,124,4.0,4.0,81,0.00,,,0.00,Wunderground v.1.15,2013-07-15 14:52:00,
2013-07-15 09:59:00,83.3,76.5,30.06,East,85,3.0,6.0,80,0.00,,,0.00,Wunderground v.1.15,2013-07-15 14:59:00,
2013-07-15 10:04:00,83.5,76.3,30.06,SSE,159,4.0,7.0,79,0.00,,,0.00,Wunderground v.1.15,2013-07-15 15:04:00,
2013-07-15 10:09:00,83.7,76.5,30.07,ESE,117,4.0,5.0,79,0.00,,,0.00,Wunderground v.1.15,2013-07-15 15:09:00,
2013-07-15 10:15:00,83.9,75.9,30.07,ESE,113,5.0,9.0,77,0.00,,,0.00,Wunderground v.1.15,2013-07-15 15:15:00,
2013-07-15 10:20:00,84.5,76.1,30.07,SE,124,6.0,6.0,76,0.00,,,0.00,Wunderground v.1.15,2013-07-15 15:20:00,
2013-07-15 10:26:00,84.5,75.3,30.07,East,88,5.0,6.0,74,0.00,,,0.00,Wunderground v.1.15,2013-07-15 15:26:00,
2013-07-15 10:33:00,84.3,75.1,30.07,SE,141,5.0,7.0,74,0.00,,,0.00,Wunderground v.1.15,2013-07-15 15:33:00,
2013-07-15 10:38:00,85.2,75.1,30.07,SSE,160,4.0,6.0,72,0.00,,,0.00,Wunderground v.1.15,2013-07-15 15:38:00,
2013-07-15 10:44:00,85.6,75.5,30.07,SE,132,4.0,7.0,72,0.00,,,0.00,Wunderground v.1.15,2013-07-15 15:44:00,
2013-07-15 10:49:00,85.6,75.5,30.07,SSE,158,5.0,6.0,72,0.00,,,0.00,Wunderground v.1.15,2013-07-15 15:49:00,
2013-07-15 10:54:00,85.9,75.8,30.06,SE,141,5.0,6.0,72,0.00,,,0.00,Wunderground v.1.15,2013-07-15 15:54:00,
2013-07-15 10:59:00,86.1,75.6,30.06,SW,214,4.0,7.0,71,0.00,,,0.00,Wunderground v.1.15,2013-07-15 15:59:00,
2013-07-15 11:05:00,86.7,74.9,30.06,ESE,103,3.0,8.0,68,0.00,,,0.00,Wunderground v.1.15,2013-07-15 16:05:00,
2013-07-15 11:10:00,86.0,74.6,30.06,SSE,148,4.0,8.0,69,0.00,,,0.00,Wunderground v.1.15,2013-07-15 16:10:00,
2013-07-15 11:15:00,86.8,75.0,30.06,SE,141,5.0,7.0,68,0.00,,,0.00,Wunderground v.1.15,2013-07-15 16:15:00,
2013-07-15 11:22:00,87.2,74.9,30.06,East,98,3.0,7.0,67,0.00,,,0.00,Wunderground v.1.15,2013-07-15 16:22:00,
2013-07-15 11:27:00,87.2,74.9,30.06,SE,142,4.0,4.0,67,0.00,,,0.00,Wunderground v.1.15,2013-07-15 16:27:00,
2013-07-15 11:33:00,87.1,75.3,30.05,ESE,108,4.0,7.0,68,0.00,,,0.00,Wunderground v.1.15,2013-07-15 16:33:00,
2013-07-15 11:39:00,87.5,74.7,30.05,East,89,4.0,6.0,66,0.00,,,0.00,Wunderground v.1.15,2013-07-15 16:39:00,
2013-07-15 11:44:00,87.2,74.0,30.05,East,94,4.0,6.0,65,0.00,,,0.00,Wunderground v.1.15,2013-07-15 16:44:00,
2013-07-15 11:49:00,87.6,74.4,30.05,SE,140,4.0,4.0,65,0.00,,,0.00,Wunderground v.1.15,2013-07-15 16:49:00,
2013-07-15 11:54:00,87.9,74.2,30.05,East,98,4.0,7.0,64,0.00,,,0.00,Wunderground v.1.15,2013-07-15 16:54:00,
2013-07-15 12:00:00,87.9,73.7,30.05,ESE,120,5.0,8.0,63,0.00,,,0.00,Wunderground v.1.15,2013-07-15 17:00:00,
2013-07-15 12:05:00,88.1,73.4,30.05,SSE,160,5.0,5.0,62,0.00,,,0.00,Wunderground v.1.15,2013-07-15 17:05:00,
2013-07-15 12:14:00,88.4,71.7,30.05,SE,131,5.0,12.0,58,0.00,,,0.00,Wunderground v.1.15,2013-07-15 17:14:00,
2013-07-15 12:19:00,88.1,72.5,30.05,ESE,102,6.0,8.0,60,0.00,,,0.00,Wunderground v.1.15,2013-07-15 17:19:00,
2013-07-15 12:25:00,88.2,73.5,30.05,ESE,122,5.0,5.0,62,0.00,,,0.00,Wunderground v.1.15,2013-07-15 17:25:00,
2013-07-15 12:31:00,88.6,75.3,30.05,ENE,71,5.0,8.0,65,0.00,,,0.00,Wunderground v.1.15,2013-07-15 17:31:00,
2013-07-15 12:36:00,89.1,74.9,30.05,East,101,6.0,8.0,63,0.00,,,0.00,Wunderground v.1.15,2013-07-15 17:36:00,
2013-07-15 12:42:00,89.1,73.9,30.04,SE,145,6.0,8.0,61,0.00,,,0.00,Wunderground v.1.15,2013-07-15 17:42:00,
2013-07-15 12:47:00,89.1,74.9,30.05,East,100,6.0,10.0,63,0.00,,,0.00,Wunderground v.1.15,2013-07-15 17:47:00,
2013-07-15 12:52:00,89.2,73.5,30.04,East,96,7.0,10.0,60,0.00,,,0.00,Wunderground v.1.15,2013-07-15 17:52:00,
2013-07-15 12:58:00,89.1,73.9,30.04,SSE,154,7.0,8.0,61,0.00,,,0.00,Wunderground v.1.15,2013-07-15 17:58:00,
2013-07-15 13:03:00,88.8,73.6,30.04,East,89,6.0,9.0,61,0.00,,,0.00,Wunderground v.1.15,2013-07-15 18:03:00,
2013-07-15 13:09:00,89.2,74.0,30.03,SE,127,6.0,8.0,61,0.00,,,0.00,Wunderground v.1.15,2013-07-15 18:09:00,
2013-07-15 13:14:00,89.5,74.8,30.03,ENE,58,6.0,8.0,62,0.00,,,0.00,Wunderground v.1.15,2013-07-15 18:14:00,
2013-07-15 13:19:00,89.8,74.1,30.03,ENE,68,6.0,8.0,60,0.00,,,0.00,Wunderground v.1.15,2013-07-15 18:19:00,
2013-07-15 13:24:00,89.9,74.2,30.03,SSE,156,7.0,12.0,60,0.00,,,0.00,Wunderground v.1.15,2013-07-15 18:24:00,
2013-07-15 13:30:00,90.0,73.2,30.03,ESE,115,8.0,11.0,58,0.00,,,0.00,Wunderground v.1.15,2013-07-15 18:30:00,
2013-07-15 13:35:00,90.0,72.7,30.05,SSE,166,8.0,19.0,57,0.00,,,0.00,Wunderground v.1.15,2013-07-15 18:35:00,
2013-07-15 13:40:00,87.0,71.9,30.05,SSW,204,8.0,19.0,61,0.00,,,0.00,Wunderground v.1.15,2013-07-15 18:40:00,
2013-07-15 13:46:00,84.4,71.8,30.06,SE,145,8.0,19.0,66,0.00,,,0.00,Wunderground v.1.15,2013-07-15 18:46:00,
2013-07-15 13:51:00,82.2,71.9,30.06,SE,136,8.0,19.0,71,0.00,,,0.00,Wunderground v.1.15,2013-07-15 18:51:00,
2013-07-15 13:56:00,80.3,72.8,30.06,SSW,193,6.0,8.0,78,0.00,,,0.00,Wunderground v.1.15,2013-07-15 18:56:00,
2013-07-15 14:02:00,78.2,72.3,30.06,SE,132,5.0,8.0,82,0.00,,,0.01,Wunderground v.1.15,2013-07-15 19:02:00,
2013-07-15 14:07:00,76.2,71.7,30.07,East,85,6.0,8.0,86,0.13,,,0.02,Wunderground v.1.15,2013-07-15 19:07:00,
2013-07-15 14:12:00,75.2,71.4,30.07,SE,136,6.0,8.0,88,0.11,,,0.03,Wunderground v.1.15,2013-07-15 19:12:00,
2013-07-15 14:18:00,74.8,71.7,30.07,SE,127,4.0,8.0,90,0.06,,,0.03,Wunderground v.1.15,2013-07-15 19:18:00,
2013-07-15 14:24:00,74.5,71.4,30.07,SSE,150,4.0,8.0,90,0.06,,,0.04,Wunderground v.1.15,2013-07-15 19:24:00,
2013-07-15 14:29:00,74.2,71.4,30.07,ESE,120,4.0,8.0,91,0.05,,,0.05,Wunderground v.1.15,2013-07-15 19:29:00,
2013-07-15 14:35:00,74.0,71.2,30.07,SE,141,4.0,4.0,91,0.05,,,0.05,Wunderground v.1.15,2013-07-15 19:35:00,
2013-07-15 14:41:00,73.7,71.2,30.07,ESE,123,5.0,8.0,92,0.19,,,0.07,Wunderground v.1.15,2013-07-15 19:41:00,
2013-07-15 14:46:00,73.5,70.7,30.07,SSE,150,5.0,8.0,91,0.16,,,0.08,Wunderground v.1.15,2013-07-15 19:46:00,
2013-07-15 14:51:00,73.3,70.5,30.06,SSE,152,4.0,8.0,91,0.12,,,0.09,Wunderground v.1.15,2013-07-15 19:51:00,
2013-07-15 14:57:00,73.2,70.4,30.06,ESE,103,3.0,8.0,91,0.09,,,0.10,Wunderground v.1.15,2013-07-15 19:57:00,
2013-07-15 15:02:00,73.1,70.3,30.06,SSE,149,2.0,8.0,91,0.06,,,0.10,Wunderground v.1.15,2013-07-15 20:02:00,
2013-07-15 15:07:00,73.0,70.2,30.07,ESE,122,3.0,8.0,91,0.04,,,0.10,Wunderground v.1.15,2013-07-15 20:07:00,
2013-07-15 15:13:00,72.7,69.6,30.06,SE,143,4.0,8.0,90,0.04,,,0.11,Wunderground v.1.15,2013-07-15 20:13:00,
2013-07-15 15:19:00,72.6,69.8,30.06,ESE,113,4.0,8.0,91,0.04,,,0.11,Wunderground v.1.15,2013-07-15 20:19:00,
2013-07-15 15:24:00,72.6,69.8,30.05,ESE,110,2.0,8.0,91,0.05,,,0.13,Wunderground v.1.15,2013-07-15 20:24:00,
2013-07-15 15:29:00,72.5,69.7,30.05,East,96,2.0,8.0,91,0.05,,,0.13,Wunderground v.1.15,2013-07-15 20:29:00,
2013-07-15 15:35:00,72.3,69.5,30.05,ESE,102,3.0,8.0,91,0.05,,,0.14,Wunderground v.1.15,2013-07-15 20:35:00,
2013-07-15 15:40:00,72.3,69.8,30.04,ESE,110,3.0,8.0,92,0.05,,,0.14,Wunderground v.1.15,2013-07-15 20:40:00,
2013-07-15 15:46:00,72.3,69.8,30.03,SE,134,4.0,8.0,92,0.04,,,0.14,Wunderground v.1.15,2013-07-15 20:46:00,
2013-07-15 15:52:00,72.5,70.0,30.03,ESE,111,3.0,8.0,92,0.00,,,0.14,Wunderground v.1.15,2013-07-15 20:52:00,
2013-07-15 15:57:00,72.8,70.3,30.03,SE,135,2.0,8.0,92,0.00,,,0.14,Wunderground v.1.15,2013-07-15 20:57:00,
2013-07-15 16:02:00,72.9,70.4,30.03,SE,135,2.0,8.0,92,0.00,,,0.14,Wunderground v.1.15,2013-07-15 21:02:00,
2013-07-15 16:07:00,73.2,70.7,30.03,SSE,153,1.0,8.0,92,0.00,,,0.14,Wunderground v.1.15,2013-07-15 21:07:00,
2013-07-15 16:13:00,73.4,70.9,30.03,SW,225,1.0,8.0,92,0.00,,,0.14,Wunderground v.1.15,2013-07-15 21:13:00,
2013-07-15 16:19:00,73.5,71.4,30.03,SSW,208,1.0,8.0,93,0.00,,,0.14,Wunderground v.1.15,2013-07-15 21:19:00,
2013-07-15 16:24:00,73.5,71.4,30.04,SSW,194,1.0,8.0,93,0.00,,,0.14,Wunderground v.1.15,2013-07-15 21:24:00,
2013-07-15 16:29:00,73.8,71.6,30.04,South,180,1.0,8.0,93,0.00,,,0.14,Wunderground v.1.15,2013-07-15 21:29:00,
2013-07-15 16:34:00,73.9,71.4,30.04,ESE,115,1.0,8.0,92,0.00,,,0.14,Wunderground v.1.15,2013-07-15 21:34:00,
2013-07-15 16:41:00,74.0,71.5,30.04,ESE,115,2.0,8.0,92,0.00,,,0.14,Wunderground v.1.15,2013-07-15 21:41:00,
2013-07-15 16:46:00,74.3,71.8,30.04,East,101,1.0,8.0,92,0.00,,,0.14,Wunderground v.1.15,2013-07-15 21:46:00,
2013-07-15 16:51:00,74.4,71.6,30.04,ESE,120,2.0,8.0,91,0.00,,,0.14,Wunderground v.1.15,2013-07-15 21:51:00,
2013-07-15 16:57:00,74.6,72.1,30.03,East,86,2.0,8.0,92,0.00,,,0.14,Wunderground v.1.15,2013-07-15 21:57:00,
2013-07-15 17:04:00,74.8,72.0,30.03,ESE,120,1.0,8.0,91,0.00,,,0.14,Wunderground v.1.15,2013-07-15 22:04:00,
2013-07-15 17:11:00,75.3,72.2,30.03,SSE,158,1.0,8.0,90,0.00,,,0.14,Wunderground v.1.15,2013-07-15 22:11:00,
2013-07-15 17:16:00,75.9,72.4,30.03,SSW,194,0.0,8.0,89,0.00,,,0.14,Wunderground v.1.15,2013-07-15 22:16:00,
2013-07-15 17:21:00,76.4,72.6,30.03,SE,136,0.0,8.0,88,0.00,,,0.14,Wunderground v.1.15,2013-07-15 22:21:00,
2013-07-15 17:26:00,77.0,72.8,30.03,SW,218,0.0,8.0,87,0.00,,,0.14,Wunderground v.1.15,2013-07-15 22:26:00,
2013-07-15 17:32:00,77.2,72.7,30.03,WSW,243,0.0,8.0,86,0.00,,,0.14,Wunderground v.1.15,2013-07-15 22:32:00,
2013-07-15 17:37:00,77.2,72.3,30.03,SSE,152,1.0,8.0,85,0.00,,,0.14,Wunderground v.1.15,2013-07-15 22:37:00,
2013-07-15 17:42:00,77.3,72.1,30.03,SSE,162,1.0,8.0,84,0.00,,,0.14,Wunderground v.1.15,2013-07-15 22:42:00,
2013-07-15 17:48:00,77.0,72.1,30.04,ESE,110,2.0,8.0,85,0.00,,,0.14,Wunderground v.1.15,2013-07-15 22:48:00,
2013-07-15 17:54:00,76.9,72.4,30.04,SE,127,2.0,8.0,86,0.00,,,0.14,Wunderground v.1.15,2013-07-15 22:54:00,
2013-07-15 17:59:00,76.9,72.7,30.04,SE,141,1.0,8.0,87,0.00,,,0.14,Wunderground v.1.15,2013-07-15 22:59:00,
2013-07-15 18:04:00,77.0,72.5,30.05,SSE,149,1.0,8.0,86,0.00,,,0.14,Wunderground v.1.15,2013-07-15 23:04:00,
2013-07-15 18:09:00,76.9,72.4,30.05,ESE,120,1.0,8.0,86,0.00,,,0.14,Wunderground v.1.15,2013-07-15 23:09:00,
2013-07-15 18:16:00,77.0,72.8,30.05,SW,231,1.0,8.0,87,0.00,,,0.14,Wunderground v.1.15,2013-07-15 23:16:00,
2013-07-15 18:21:00,77.2,73.0,30.05,SW,231,0.0,8.0,87,0.00,,,0.14,Wunderground v.1.15,2013-07-15 23:21:00,
2013-07-15 18:26:00,77.3,72.8,30.05,East,97,0.0,8.0,86,0.00,,,0.14,Wunderground v.1.15,2013-07-15 23:26:00,
2013-07-15 18:32:00,77.3,73.1,30.04,ESE,111,1.0,8.0,87,0.00,,,0.14,Wunderground v.1.15,2013-07-15 23:32:00,
2013-07-15 18:38:00,77.4,73.2,30.05,ESE,111,1.0,8.0,87,0.00,,,0.14,Wunderground v.1.15,2013-07-15 23:38:00,
2013-07-15 18:44:00,77.6,73.8,30.05,ESE,111,0.0,8.0,88,0.00,,,0.14,Wunderground v.1.15,2013-07-15 23:44:00,
2013-07-15 18:49:00,77.7,73.9,30.05,ESE,111,0.0,8.0,88,0.00,,,0.14,Wunderground v.1.15,2013-07-15 23:49:00,
2013-07-15 18:54:00,77.6,73.4,30.05,ESE,111,0.0,8.0,87,0.00,,,0.14,Wunderground v.1.15,2013-07-15 23:54:00,
2013-07-15 18:59:00,77.7,73.5,30.05,ESE,113,0.0,8.0,87,0.00,,,0.14,Wunderground v.1.15,2013-07-15 23:59:00,
2013-07-15 19:05:00,77.9,73.7,30.05,ESE,113,0.0,8.0,87,0.00,,,0.14,Wunderground v.1.15,2013-07-16 00:05:00,
2013-07-15 19:10:00,78.1,73.9,30.05,ESE,113,0.0,8.0,87,0.00,,,0.14,Wunderground v.1.15,2013-07-16 00:10:00,
2013-07-15 19:15:00,78.2,74.0,30.05,ENE,70,0.0,8.0,87,0.00,,,0.14,Wunderground v.1.15,2013-07-16 00:15:00,
2013-07-15 19:20:00,78.2,74.0,30.06,ENE,67,0.0,8.0,87,0.00,,,0.14,Wunderground v.1.15,2013-07-16 00:20:00,
2013-07-15 19:26:00,78.1,73.9,30.05,East,91,0.0,8.0,87,0.00,,,0.14,Wunderground v.1.15,2013-07-16 00:26:00,
2013-07-15 19:31:00,78.0,74.2,30.05,ESE,120,1.0,8.0,88,0.00,,,0.14,Wunderground v.1.15,2013-07-16 00:31:00,
2013-07-15 19:36:00,77.9,74.1,30.05,ESE,120,1.0,8.0,88,0.00,,,0.14,Wunderground v.1.15,2013-07-16 00:36:00,
2013-07-15 19:41:00,77.9,74.1,30.05,ESE,120,0.0,8.0,88,0.00,,,0.14,Wunderground v.1.15,2013-07-16 00:41:00,
2013-07-15 19:47:00,77.9,74.4,30.06,ESE,120,0.0,8.0,89,0.00,,,0.14,Wunderground v.1.15,2013-07-16 00:47:00,
2013-07-15 19:52:00,77.9,74.4,30.06,ESE,120,0.0,8.0,89,0.00,,,0.14,Wunderground v.1.15,2013-07-16 00:52:00,
2013-07-15 19:59:00,77.4,74.2,30.06,ESE,120,0.0,8.0,90,0.00,,,0.14,Wunderground v.1.15,2013-07-16 00:59:00,
2013-07-15 20:05:00,77.2,74.0,30.06,ESE,120,0.0,8.0,90,0.00,,,0.14,Wunderground v.1.15,2013-07-16 01:05:00,
2013-07-15 20:11:00,76.9,74.1,30.06,ESE,120,0.0,8.0,91,0.00,,,0.14,Wunderground v.1.15,2013-07-16 01:11:00,
2013-07-15 20:16:00,76.6,73.8,30.06,ESE,120,0.0,8.0,91,0.00,,,0.14,Wunderground v.1.15,2013-07-16 01:16:00,
2013-07-15 20:22:00,76.2,73.4,30.06,ESE,120,0.0,8.0,91,0.00,,,0.14,Wunderground v.1.15,2013-07-16 01:22:00,
2013-07-15 20:30:00,76.0,73.5,30.06,ESE,120,0.0,8.0,92,0.00,,,0.14,Wunderground v.1.15,2013-07-16 01:30:00,
2013-07-15 20:36:00,75.7,73.2,30.06,ESE,120,0.0,8.0,92,0.00,,,0.14,Wunderground v.1.15,2013-07-16 01:36:00,
2013-07-15 20:41:00,75.5,73.3,30.06,ESE,120,0.0,8.0,93,0.00,,,0.14,Wunderground v.1.15,2013-07-16 01:41:00,
2013-07-15 20:47:00,75.4,73.2,30.06,ESE,120,0.0,8.0,93,0.00,,,0.14,Wunderground v.1.15,2013-07-16 01:47:00,
2013-07-15 20:52:00,75.2,73.0,30.06,ESE,120,0.0,8.0,93,0.00,,,0.14,Wunderground v.1.15,2013-07-16 01:52:00,
2013-07-15 20:59:00,75.2,73.0,30.06,ESE,120,0.0,8.0,93,0.00,,,0.14,Wunderground v.1.15,2013-07-16 01:59:00,
2013-07-15 21:04:00,75.0,73.2,30.06,ESE,120,0.0,8.0,94,0.00,,,0.14,Wunderground v.1.15,2013-07-16 02:04:00,
2013-07-15 21:10:00,74.9,73.1,30.06,ESE,120,0.0,8.0,94,0.00,,,0.14,Wunderground v.1.15,2013-07-16 02:10:00,
2013-07-15 21:15:00,75.0,73.2,30.07,ESE,117,0.0,8.0,94,0.00,,,0.14,Wunderground v.1.15,2013-07-16 02:15:00,
2013-07-15 21:21:00,75.1,73.3,30.07,ESE,117,0.0,8.0,94,0.00,,,0.14,Wunderground v.1.15,2013-07-16 02:21:00,
2013-07-15 21:26:00,75.2,73.4,30.07,ESE,117,0.0,8.0,94,0.00,,,0.14,Wunderground v.1.15,2013-07-16 02:26:00,
2013-07-15 21:32:00,75.3,73.5,30.07,ESE,111,0.0,8.0,94,0.00,,,0.14,Wunderground v.1.15,2013-07-16 02:32:00,
2013-07-15 21:37:00,75.3,73.1,30.08,ESE,108,1.0,8.0,93,0.00,,,0.14,Wunderground v.1.15,2013-07-16 02:37:00,
2013-07-15 21:43:00,75.4,73.2,30.08,ESE,120,1.0,8.0,93,0.00,,,0.14,Wunderground v.1.15,2013-07-16 02:43:00,
2013-07-15 21:49:00,75.4,72.9,30.08,East,91,0.0,8.0,92,0.00,,,0.14,Wunderground v.1.15,2013-07-16 02:49:00,
2013-07-15 21:54:00,75.4,72.9,30.09,East,98,1.0,8.0,92,0.00,,,0.14,Wunderground v.1.15,2013-07-16 02:54:00,
2013-07-15 21:59:00,75.5,73.0,30.09,ESE,114,1.0,8.0,92,0.00,,,0.14,Wunderground v.1.15,2013-07-16 02:59:00,
2013-07-15 22:04:00,75.6,72.8,30.09,ESE,114,1.0,8.0,91,0.00,,,0.14,Wunderground v.1.15,2013-07-16 03:04:00,
2013-07-15 22:10:00,75.6,72.8,30.09,ESE,113,0.0,8.0,91,0.00,,,0.14,Wunderground v.1.15,2013-07-16 03:10:00,
2013-07-15 22:15:00,75.6,72.8,30.10,ESE,113,0.0,8.0,91,0.00,,,0.14,Wunderground v.1.15,2013-07-16 03:15:00,
2013-07-15 22:20:00,75.6,72.8,30.11,ESE,113,0.0,8.0,91,0.00,,,0.14,Wunderground v.1.15,2013-07-16 03:20:00,
2013-07-15 22:26:00,75.6,72.8,30.11,ESE,113,0.0,8.0,91,0.00,,,0.14,Wunderground v.1.15,2013-07-16 03:26:00,
2013-07-15 22:32:00,75.7,73.2,30.11,ESE,113,0.0,8.0,92,0.00,,,0.14,Wunderground v.1.15,2013-07-16 03:32:00,
2013-07-15 22:39:00,75.7,73.2,30.11,ESE,113,0.0,8.0,92,0.00,,,0.14,Wunderground v.1.15,2013-07-16 03:39:00,
2013-07-15 22:44:00,75.6,73.1,30.11,ESE,113,0.0,8.0,92,0.00,,,0.14,Wunderground v.1.15,2013-07-16 03:44:00,
2013-07-15 22:49:00,75.6,73.1,30.11,East,87,0.0,8.0,92,0.00,,,0.14,Wunderground v.1.15,2013-07-16 03:49:00,
2013-07-15 22:55:00,75.7,73.2,30.11,East,82,1.0,8.0,92,0.00,,,0.14,Wunderground v.1.15,2013-07-16 03:55:00,
2013-07-15 23:00:00,75.7,73.2,30.11,ESE,109,1.0,8.0,92,0.00,,,0.14,Wunderground v.1.15,2013-07-16 04:00:00,
2013-07-15 23:01:00,75.7,73.2,30.11,ESE,111,1.0,8.0,92,0.00,,,0.14,Wunderground v.1.15,2013-07-16 04:01:00,
2013-07-15 23:02:00,75.7,73.2,30.11,East,79,1.0,8.0,92,0.00,,,0.14,Wunderground v.1.15,2013-07-16 04:02:00,
2013-07-15 23:06:00,75.6,73.1,30.11,ENE,66,1.0,8.0,92,0.00,,,0.14,Wunderground v.1.15,2013-07-16 04:06:00,
2013-07-15 23:10:00,75.7,72.9,30.11,East,85,1.0,8.0,91,0.00,,,0.14,Wunderground v.1.15,2013-07-16 04:10:00,
2013-07-15 23:12:00,75.7,72.9,30.11,NE,56,1.0,8.0,91,0.00,,,0.14,Wunderground v.1.15,2013-07-16 04:12:00,
2013-07-15 23:18:00,75.8,73.0,30.11,ENE,70,1.0,8.0,91,0.00,,,0.14,Wunderground v.1.15,2013-07-16 04:18:00,
2013-07-15 23:23:00,75.8,73.0,30.11,ENE,77,1.0,8.0,91,0.00,,,0.14,Wunderground v.1.15,2013-07-16 04:23:00,
2013-07-15 23:29:00,75.8,72.7,30.11,East,94,2.0,8.0,90,0.00,,,0.14,Wunderground v.1.15,2013-07-16 04:29:00,
2013-07-15 23:34:00,75.9,72.8,30.11,ENE,75,2.0,8.0,90,0.00,,,0.14,Wunderground v.1.15,2013-07-16 04:34:00,
2013-07-15 23:39:00,75.8,72.7,30.11,East,94,2.0,8.0,90,0.00,,,0.14,Wunderground v.1.15,2013-07-16 04:39:00,
2013-07-15 23:44:00,75.9,72.8,30.11,ESE,102,2.0,8.0,90,0.00,,,0.14,Wunderground v.1.15,2013-07-16 04:44:00,
2013-07-15 23:49:00,75.8,72.7,30.11,East,84,2.0,8.0,90,0.00,,,0.14,Wunderground v.1.15,2013-07-16 04:49:00,
2013-07-15 23:55:00,75.7,72.6,30.11,East,91,1.0,1.0,90,0.00,,,0.14,Wunderground v.1.15,2013-07-16 04:55:00,